sensor_id;sensor_type;location;lat;lon;timestamp;P1;durP1;ratioP1;P2;durP2;ratioP2
9392;SDS011;4736;52.508;13.422;2023-03-12T00:00:00;4.53;;;4.10;;
9392;SDS011;4736;52.508;13.422;2023-03-12T00:03:04;4.63;;;4.23;;
9392;SDS011;4736;52.508;13.422;2023-03-12T00:06:07;4.87;;;4.60;;
9392;SDS011;4736;52.508;13.422;2023-03-12T00:09:12;4.67;;;4.47;;
9392;SDS011;4736;52.508;13.422;2023-03-12T00:12:15;4.40;;;4.20;;
9392;SDS011;4736;52.508;13.422;2023-03-12T00:15:19;4.67;;;4.27;;
9392;SDS011;4736;52.508;13.422;2023-03-12T00:18:22;4.60;;;4.20;;
9392;SDS011;4736;52.508;13.422;2023-03-12T00:21:25;4.43;;;4.13;;
9392;SDS011;4736;52.508;13.422;2023-03-12T00:24:30;4.20;;;3.90;;
9392;SDS011;4736;52.508;13.422;2023-03-12T00:27:33;4.53;;;4.23;;
9392;SDS011;4736;52.508;13.422;2023-03-12T00:30:36;4.03;;;3.83;;
9392;SDS011;4736;52.508;13.422;2023-03-12T00:33:40;5.60;;;3.77;;
9392;SDS011;4736;52.508;13.422;2023-03-12T00:36:43;4.50;;;4.10;;
9392;SDS011;4736;52.508;13.422;2023-03-12T00:39:48;4.50;;;4.20;;
9392;SDS011;4736;52.508;13.422;2023-03-12T00:42:51;4.93;;;4.27;;
9392;SDS011;4736;52.508;13.422;2023-03-12T00:45:54;3.77;;;3.70;;
9392;SDS011;4736;52.508;13.422;2023-03-12T00:48:57;4.40;;;4.20;;
9392;SDS011;4736;52.508;13.422;2023-03-12T00:52:00;4.47;;;4.27;;
9392;SDS011;4736;52.508;13.422;2023-03-12T00:55:05;4.03;;;3.90;;
9392;SDS011;4736;52.508;13.422;2023-03-12T00:58:09;4.57;;;4.23;;
9392;SDS011;4736;52.508;13.422;2023-03-12T01:01:12;4.30;;;4.17;;
9392;SDS011;4736;52.508;13.422;2023-03-12T01:04:15;5.33;;;4.77;;
9392;SDS011;4736;52.508;13.422;2023-03-12T01:07:20;4.77;;;4.57;;
9392;SDS011;4736;52.508;13.422;2023-03-12T01:10:25;4.50;;;4.30;;
9392;SDS011;4736;52.508;13.422;2023-03-12T01:13:28;4.70;;;4.40;;
9392;SDS011;4736;52.508;13.422;2023-03-12T01:16:32;4.40;;;4.10;;
9392;SDS011;4736;52.508;13.422;2023-03-12T01:19:35;4.53;;;4.23;;
9392;SDS011;4736;52.508;13.422;2023-03-12T01:22:38;5.50;;;4.17;;
9392;SDS011;4736;52.508;13.422;2023-03-12T01:25:42;4.37;;;4.17;;
9392;SDS011;4736;52.508;13.422;2023-03-12T01:28:48;4.60;;;4.30;;
9392;SDS011;4736;52.508;13.422;2023-03-12T01:31:51;4.27;;;4.07;;
9392;SDS011;4736;52.508;13.422;2023-03-12T01:34:54;5.17;;;4.77;;
9392;SDS011;4736;52.508;13.422;2023-03-12T01:37:58;4.20;;;4.00;;
9392;SDS011;4736;52.508;13.422;2023-03-12T01:41:03;4.33;;;4.23;;
9392;SDS011;4736;52.508;13.422;2023-03-12T01:44:06;4.50;;;4.30;;
9392;SDS011;4736;52.508;13.422;2023-03-12T01:47:13;4.50;;;4.20;;
9392;SDS011;4736;52.508;13.422;2023-03-12T01:50:16;4.43;;;4.23;;
9392;SDS011;4736;52.508;13.422;2023-03-12T01:53:20;4.30;;;4.10;;
9392;SDS011;4736;52.508;13.422;2023-03-12T01:56:25;4.83;;;4.07;;
9392;SDS011;4736;52.508;13.422;2023-03-12T01:59:32;4.40;;;4.20;;
9392;SDS011;4736;52.508;13.422;2023-03-12T02:02:38;4.63;;;4.53;;
9392;SDS011;4736;52.508;13.422;2023-03-12T02:05:44;5.07;;;4.67;;
9392;SDS011;4736;52.508;13.422;2023-03-12T02:08:54;6.20;;;4.70;;
9392;SDS011;4736;52.508;13.422;2023-03-12T02:12:01;4.70;;;4.33;;
9392;SDS011;4736;52.508;13.422;2023-03-12T02:15:06;4.77;;;4.47;;
9392;SDS011;4736;52.508;13.422;2023-03-12T02:18:12;4.57;;;4.17;;
9392;SDS011;4736;52.508;13.422;2023-03-12T02:21:20;5.10;;;4.63;;
9392;SDS011;4736;52.508;13.422;2023-03-12T02:24:27;4.77;;;4.37;;
9392;SDS011;4736;52.508;13.422;2023-03-12T02:27:37;4.77;;;4.30;;
9392;SDS011;4736;52.508;13.422;2023-03-12T02:30:41;4.80;;;4.50;;
9392;SDS011;4736;52.508;13.422;2023-03-12T02:33:48;4.30;;;4.10;;
9392;SDS011;4736;52.508;13.422;2023-03-12T02:36:53;5.07;;;4.60;;
9392;SDS011;4736;52.508;13.422;2023-03-12T02:39:57;4.23;;;4.13;;
9392;SDS011;4736;52.508;13.422;2023-03-12T02:43:07;4.87;;;4.67;;
9392;SDS011;4736;52.508;13.422;2023-03-12T02:46:11;4.87;;;4.47;;
9392;SDS011;4736;52.508;13.422;2023-03-12T02:49:15;4.43;;;4.23;;
9392;SDS011;4736;52.508;13.422;2023-03-12T02:52:19;4.90;;;4.70;;
9392;SDS011;4736;52.508;13.422;2023-03-12T02:55:22;5.20;;;4.90;;
9392;SDS011;4736;52.508;13.422;2023-03-12T02:58:26;4.27;;;4.10;;
9392;SDS011;4736;52.508;13.422;2023-03-12T03:01:30;4.83;;;4.60;;
9392;SDS011;4736;52.508;13.422;2023-03-12T03:04:34;4.77;;;4.60;;
9392;SDS011;4736;52.508;13.422;2023-03-12T03:07:37;5.13;;;4.53;;
9392;SDS011;4736;52.508;13.422;2023-03-12T03:10:40;5.03;;;4.80;;
9392;SDS011;4736;52.508;13.422;2023-03-12T03:13:45;7.43;;;4.90;;
9392;SDS011;4736;52.508;13.422;2023-03-12T03:16:48;5.83;;;4.40;;
9392;SDS011;4736;52.508;13.422;2023-03-12T03:19:51;6.13;;;4.87;;
9392;SDS011;4736;52.508;13.422;2023-03-12T03:22:54;5.10;;;5.00;;
9392;SDS011;4736;52.508;13.422;2023-03-12T03:25:57;5.63;;;5.23;;
9392;SDS011;4736;52.508;13.422;2023-03-12T03:29:02;5.27;;;4.80;;
9392;SDS011;4736;52.508;13.422;2023-03-12T03:32:05;5.23;;;4.80;;
9392;SDS011;4736;52.508;13.422;2023-03-12T03:35:09;5.63;;;5.33;;
9392;SDS011;4736;52.508;13.422;2023-03-12T03:38:12;5.30;;;4.90;;
9392;SDS011;4736;52.508;13.422;2023-03-12T03:41:15;4.90;;;4.53;;
9392;SDS011;4736;52.508;13.422;2023-03-12T03:44:20;5.50;;;5.10;;
9392;SDS011;4736;52.508;13.422;2023-03-12T03:47:24;5.27;;;4.83;;
9392;SDS011;4736;52.508;13.422;2023-03-12T03:50:27;4.90;;;4.50;;
9392;SDS011;4736;52.508;13.422;2023-03-12T03:53:30;5.30;;;4.87;;
9392;SDS011;4736;52.508;13.422;2023-03-12T03:56:34;4.80;;;4.50;;
9392;SDS011;4736;52.508;13.422;2023-03-12T03:59:39;7.00;;;4.67;;
9392;SDS011;4736;52.508;13.422;2023-03-12T04:02:42;5.50;;;5.07;;
9392;SDS011;4736;52.508;13.422;2023-03-12T04:05:45;9.37;;;5.37;;
9392;SDS011;4736;52.508;13.422;2023-03-12T04:08:48;5.50;;;5.20;;
9392;SDS011;4736;52.508;13.422;2023-03-12T04:11:51;5.33;;;4.80;;
9392;SDS011;4736;52.508;13.422;2023-03-12T04:14:56;5.13;;;4.83;;
9392;SDS011;4736;52.508;13.422;2023-03-12T04:17:59;5.27;;;4.80;;
9392;SDS011;4736;52.508;13.422;2023-03-12T04:21:02;7.80;;;5.13;;
9392;SDS011;4736;52.508;13.422;2023-03-12T04:24:05;5.63;;;5.17;;
9392;SDS011;4736;52.508;13.422;2023-03-12T04:27:09;5.70;;;5.27;;
9392;SDS011;4736;52.508;13.422;2023-03-12T04:30:14;6.57;;;5.97;;
9392;SDS011;4736;52.508;13.422;2023-03-12T04:33:17;7.77;;;5.60;;
9392;SDS011;4736;52.508;13.422;2023-03-12T04:36:20;6.67;;;5.80;;
9392;SDS011;4736;52.508;13.422;2023-03-12T04:39:24;6.47;;;6.00;;
9392;SDS011;4736;52.508;13.422;2023-03-12T04:42:27;6.43;;;5.93;;
9392;SDS011;4736;52.508;13.422;2023-03-12T04:45:31;6.47;;;6.10;;
9392;SDS011;4736;52.508;13.422;2023-03-12T04:48:35;6.93;;;6.43;;
9392;SDS011;4736;52.508;13.422;2023-03-12T04:51:38;6.83;;;6.27;;
9392;SDS011;4736;52.508;13.422;2023-03-12T04:54:41;7.57;;;6.83;;
9392;SDS011;4736;52.508;13.422;2023-03-12T04:57:48;8.73;;;7.37;;
9392;SDS011;4736;52.508;13.422;2023-03-12T05:00:52;6.80;;;6.40;;
9392;SDS011;4736;52.508;13.422;2023-03-12T05:03:56;7.90;;;7.20;;
9392;SDS011;4736;52.508;13.422;2023-03-12T05:07:00;9.10;;;6.63;;
9392;SDS011;4736;52.508;13.422;2023-03-12T05:10:03;7.90;;;7.20;;
9392;SDS011;4736;52.508;13.422;2023-03-12T05:13:11;7.70;;;7.23;;
9392;SDS011;4736;52.508;13.422;2023-03-12T05:16:17;7.37;;;6.67;;
9392;SDS011;4736;52.508;13.422;2023-03-12T05:19:20;7.63;;;6.60;;
9392;SDS011;4736;52.508;13.422;2023-03-12T05:22:23;7.40;;;6.73;;
9392;SDS011;4736;52.508;13.422;2023-03-12T05:25:26;7.77;;;7.20;;
9392;SDS011;4736;52.508;13.422;2023-03-12T05:28:29;7.40;;;6.80;;
9392;SDS011;4736;52.508;13.422;2023-03-12T05:31:34;7.83;;;6.70;;
9392;SDS011;4736;52.508;13.422;2023-03-12T05:34:37;7.53;;;6.93;;
9392;SDS011;4736;52.508;13.422;2023-03-12T05:37:40;7.67;;;7.07;;
9392;SDS011;4736;52.508;13.422;2023-03-12T05:40:49;7.23;;;6.77;;
9392;SDS011;4736;52.508;13.422;2023-03-12T05:43:54;6.97;;;6.27;;
9392;SDS011;4736;52.508;13.422;2023-03-12T05:46:59;7.53;;;6.73;;
9392;SDS011;4736;52.508;13.422;2023-03-12T05:50:03;6.70;;;6.20;;
9392;SDS011;4736;52.508;13.422;2023-03-12T05:53:06;6.97;;;6.47;;
9392;SDS011;4736;52.508;13.422;2023-03-12T05:56:10;6.70;;;6.10;;
9392;SDS011;4736;52.508;13.422;2023-03-12T05:59:14;6.70;;;6.23;;
9392;SDS011;4736;52.508;13.422;2023-03-12T06:02:19;5.90;;;5.47;;
9392;SDS011;4736;52.508;13.422;2023-03-12T06:05:23;6.83;;;6.37;;
9392;SDS011;4736;52.508;13.422;2023-03-12T06:08:26;8.17;;;5.77;;
9392;SDS011;4736;52.508;13.422;2023-03-12T06:11:30;6.13;;;5.80;;
9392;SDS011;4736;52.508;13.422;2023-03-12T06:14:34;6.17;;;5.77;;
9392;SDS011;4736;52.508;13.422;2023-03-12T06:17:38;6.20;;;5.67;;
9392;SDS011;4736;52.508;13.422;2023-03-12T06:20:42;6.10;;;5.60;;
9392;SDS011;4736;52.508;13.422;2023-03-12T06:23:45;6.87;;;6.33;;
9392;SDS011;4736;52.508;13.422;2023-03-12T06:26:50;6.00;;;5.60;;
9392;SDS011;4736;52.508;13.422;2023-03-12T06:29:55;6.33;;;5.93;;
9392;SDS011;4736;52.508;13.422;2023-03-12T06:33:00;6.73;;;6.13;;
9392;SDS011;4736;52.508;13.422;2023-03-12T06:36:06;6.57;;;5.63;;
9392;SDS011;4736;52.508;13.422;2023-03-12T06:39:10;6.10;;;5.30;;
9392;SDS011;4736;52.508;13.422;2023-03-12T06:42:13;6.23;;;5.83;;
9392;SDS011;4736;52.508;13.422;2023-03-12T06:45:18;5.90;;;5.50;;
9392;SDS011;4736;52.508;13.422;2023-03-12T06:48:23;6.83;;;6.23;;
9392;SDS011;4736;52.508;13.422;2023-03-12T06:51:27;7.57;;;6.87;;
9392;SDS011;4736;52.508;13.422;2023-03-12T06:54:30;6.47;;;6.07;;
9392;SDS011;4736;52.508;13.422;2023-03-12T06:57:34;7.23;;;5.30;;
9392;SDS011;4736;52.508;13.422;2023-03-12T07:00:37;5.80;;;5.50;;
9392;SDS011;4736;52.508;13.422;2023-03-12T07:03:42;7.67;;;5.50;;
9392;SDS011;4736;52.508;13.422;2023-03-12T07:06:44;6.00;;;5.43;;
9392;SDS011;4736;52.508;13.422;2023-03-12T07:09:50;6.47;;;5.70;;
9392;SDS011;4736;52.508;13.422;2023-03-12T07:12:54;6.20;;;5.60;;
9392;SDS011;4736;52.508;13.422;2023-03-12T07:15:58;6.23;;;5.83;;
9392;SDS011;4736;52.508;13.422;2023-03-12T07:19:02;5.90;;;5.70;;
9392;SDS011;4736;52.508;13.422;2023-03-12T07:22:06;7.03;;;6.43;;
9392;SDS011;4736;52.508;13.422;2023-03-12T07:25:09;6.70;;;5.97;;
9392;SDS011;4736;52.508;13.422;2023-03-12T07:28:13;5.67;;;5.37;;
9392;SDS011;4736;52.508;13.422;2023-03-12T07:31:16;6.77;;;6.17;;
9392;SDS011;4736;52.508;13.422;2023-03-12T07:34:21;6.37;;;5.97;;
9392;SDS011;4736;52.508;13.422;2023-03-12T07:37:24;5.77;;;5.37;;
9392;SDS011;4736;52.508;13.422;2023-03-12T07:40:27;6.53;;;5.93;;
9392;SDS011;4736;52.508;13.422;2023-03-12T07:43:30;6.37;;;5.50;;
9392;SDS011;4736;52.508;13.422;2023-03-12T07:46:33;6.13;;;5.53;;
9392;SDS011;4736;52.508;13.422;2023-03-12T07:49:38;6.90;;;6.23;;
9392;SDS011;4736;52.508;13.422;2023-03-12T07:52:42;5.77;;;5.43;;
9392;SDS011;4736;52.508;13.422;2023-03-12T07:55:45;5.70;;;5.30;;
9392;SDS011;4736;52.508;13.422;2023-03-12T07:58:49;5.57;;;5.27;;
9392;SDS011;4736;52.508;13.422;2023-03-12T08:01:53;5.87;;;5.40;;
9392;SDS011;4736;52.508;13.422;2023-03-12T08:04:59;6.33;;;5.73;;
9392;SDS011;4736;52.508;13.422;2023-03-12T08:08:02;6.37;;;5.90;;
9392;SDS011;4736;52.508;13.422;2023-03-12T08:11:05;7.00;;;5.80;;
9392;SDS011;4736;52.508;13.422;2023-03-12T08:14:09;6.50;;;5.60;;
9392;SDS011;4736;52.508;13.422;2023-03-12T08:17:12;7.13;;;5.20;;
9392;SDS011;4736;52.508;13.422;2023-03-12T08:20:17;6.33;;;5.10;;
9392;SDS011;4736;52.508;13.422;2023-03-12T08:23:20;5.80;;;5.47;;
9392;SDS011;4736;52.508;13.422;2023-03-12T08:26:23;6.73;;;5.37;;
9392;SDS011;4736;52.508;13.422;2023-03-12T08:29:26;5.57;;;5.27;;
9392;SDS011;4736;52.508;13.422;2023-03-12T08:32:29;5.93;;;5.40;;
9392;SDS011;4736;52.508;13.422;2023-03-12T08:35:34;7.07;;;5.23;;
9392;SDS011;4736;52.508;13.422;2023-03-12T08:38:38;5.50;;;5.30;;
9392;SDS011;4736;52.508;13.422;2023-03-12T08:41:41;7.73;;;5.73;;
9392;SDS011;4736;52.508;13.422;2023-03-12T08:44:45;5.10;;;4.70;;
9392;SDS011;4736;52.508;13.422;2023-03-12T08:47:48;5.27;;;4.97;;
9392;SDS011;4736;52.508;13.422;2023-03-12T08:50:54;5.37;;;5.00;;
9392;SDS011;4736;52.508;13.422;2023-03-12T08:53:58;4.90;;;4.60;;
9392;SDS011;4736;52.508;13.422;2023-03-12T08:57:01;5.90;;;5.40;;
9392;SDS011;4736;52.508;13.422;2023-03-12T09:00:05;5.43;;;4.97;;
9392;SDS011;4736;52.508;13.422;2023-03-12T09:03:14;7.60;;;6.03;;
9392;SDS011;4736;52.508;13.422;2023-03-12T09:06:18;5.13;;;4.83;;
9392;SDS011;4736;52.508;13.422;2023-03-12T09:09:21;5.50;;;5.30;;
9392;SDS011;4736;52.508;13.422;2023-03-12T09:12:24;4.30;;;4.10;;
9392;SDS011;4736;52.508;13.422;2023-03-12T09:15:27;5.63;;;5.20;;
9392;SDS011;4736;52.508;13.422;2023-03-12T09:18:31;4.70;;;4.47;;
9392;SDS011;4736;52.508;13.422;2023-03-12T09:21:36;4.53;;;4.33;;
9392;SDS011;4736;52.508;13.422;2023-03-12T09:24:40;4.83;;;4.53;;
9392;SDS011;4736;52.508;13.422;2023-03-12T09:27:43;7.37;;;5.17;;
9392;SDS011;4736;52.508;13.422;2023-03-12T09:30:48;6.90;;;4.90;;
9392;SDS011;4736;52.508;13.422;2023-03-12T09:33:51;4.57;;;4.37;;
9392;SDS011;4736;52.508;13.422;2023-03-12T09:36:56;4.90;;;4.60;;
9392;SDS011;4736;52.508;13.422;2023-03-12T09:39:59;3.97;;;3.77;;
9392;SDS011;4736;52.508;13.422;2023-03-12T09:43:03;4.30;;;4.10;;
9392;SDS011;4736;52.508;13.422;2023-03-12T09:46:10;4.90;;;4.50;;
9392;SDS011;4736;52.508;13.422;2023-03-12T09:49:20;4.90;;;4.60;;
9392;SDS011;4736;52.508;13.422;2023-03-12T09:52:34;5.77;;;4.80;;
9392;SDS011;4736;52.508;13.422;2023-03-12T09:55:42;4.63;;;4.37;;
9392;SDS011;4736;52.508;13.422;2023-03-12T09:58:49;4.63;;;4.40;;
9392;SDS011;4736;52.508;13.422;2023-03-12T10:01:55;4.80;;;4.50;;
9392;SDS011;4736;52.508;13.422;2023-03-12T10:05:01;3.93;;;3.73;;
9392;SDS011;4736;52.508;13.422;2023-03-12T10:08:12;5.47;;;4.43;;
9392;SDS011;4736;52.508;13.422;2023-03-12T10:11:35;4.07;;;3.87;;
9392;SDS011;4736;52.508;13.422;2023-03-12T10:14:47;5.30;;;3.60;;
9392;SDS011;4736;52.508;13.422;2023-03-12T10:18:01;5.53;;;4.13;;
9392;SDS011;4736;52.508;13.422;2023-03-12T10:21:14;4.17;;;4.00;;
9392;SDS011;4736;52.508;13.422;2023-03-12T10:24:28;4.73;;;4.30;;
9392;SDS011;4736;52.508;13.422;2023-03-12T10:27:38;4.30;;;4.00;;
9392;SDS011;4736;52.508;13.422;2023-03-12T10:30:45;5.07;;;4.67;;
9392;SDS011;4736;52.508;13.422;2023-03-12T10:33:52;4.50;;;4.30;;
9392;SDS011;4736;52.508;13.422;2023-03-12T10:36:58;5.77;;;4.23;;
9392;SDS011;4736;52.508;13.422;2023-03-12T10:40:11;4.73;;;4.37;;
9392;SDS011;4736;52.508;13.422;2023-03-12T10:43:16;4.30;;;4.10;;
9392;SDS011;4736;52.508;13.422;2023-03-12T10:46:36;5.00;;;4.17;;
9392;SDS011;4736;52.508;13.422;2023-03-12T10:49:47;4.20;;;3.90;;
9392;SDS011;4736;52.508;13.422;2023-03-12T10:52:51;4.70;;;4.30;;
9392;SDS011;4736;52.508;13.422;2023-03-12T10:56:15;3.63;;;3.53;;
9392;SDS011;4736;52.508;13.422;2023-03-12T10:59:20;3.30;;;3.10;;
9392;SDS011;4736;52.508;13.422;2023-03-12T11:02:28;4.13;;;3.80;;
9392;SDS011;4736;52.508;13.422;2023-03-12T11:05:36;3.73;;;3.63;;
9392;SDS011;4736;52.508;13.422;2023-03-12T11:09:00;4.10;;;3.80;;
9392;SDS011;4736;52.508;13.422;2023-03-12T11:12:26;3.67;;;3.43;;
9392;SDS011;4736;52.508;13.422;2023-03-12T11:15:37;4.77;;;3.30;;
9392;SDS011;4736;52.508;13.422;2023-03-12T11:18:44;3.30;;;3.20;;
9392;SDS011;4736;52.508;13.422;2023-03-12T11:21:57;3.63;;;3.43;;
9392;SDS011;4736;52.508;13.422;2023-03-12T11:25:02;5.93;;;3.97;;
9392;SDS011;4736;52.508;13.422;2023-03-12T11:28:16;5.37;;;4.20;;
9392;SDS011;4736;52.508;13.422;2023-03-12T11:31:24;4.47;;;4.07;;
9392;SDS011;4736;52.508;13.422;2023-03-12T11:34:30;6.33;;;4.00;;
9392;SDS011;4736;52.508;13.422;2023-03-12T11:37:38;6.53;;;5.13;;
9392;SDS011;4736;52.508;13.422;2023-03-12T11:41:01;4.37;;;4.23;;
9392;SDS011;4736;52.508;13.422;2023-03-12T11:47:51;5.00;;;4.50;;
9392;SDS011;4736;52.508;13.422;2023-03-12T11:51:04;4.67;;;4.37;;
9392;SDS011;4736;52.508;13.422;2023-03-12T11:54:28;4.70;;;4.33;;
9392;SDS011;4736;52.508;13.422;2023-03-12T11:57:42;4.93;;;4.50;;
9392;SDS011;4736;52.508;13.422;2023-03-12T12:00:56;5.27;;;4.83;;
9392;SDS011;4736;52.508;13.422;2023-03-12T12:04:15;4.93;;;4.73;;
9392;SDS011;4736;52.508;13.422;2023-03-12T12:07:44;5.03;;;4.80;;
9392;SDS011;4736;52.508;13.422;2023-03-12T12:10:56;5.07;;;4.67;;
9392;SDS011;4736;52.508;13.422;2023-03-12T12:14:09;5.40;;;4.67;;
9392;SDS011;4736;52.508;13.422;2023-03-12T12:17:23;4.60;;;4.30;;
9392;SDS011;4736;52.508;13.422;2023-03-12T12:20:36;4.50;;;4.20;;
9392;SDS011;4736;52.508;13.422;2023-03-12T12:23:46;4.33;;;4.00;;
9392;SDS011;4736;52.508;13.422;2023-03-12T12:26:57;3.90;;;3.80;;
9392;SDS011;4736;52.508;13.422;2023-03-12T12:30:09;4.30;;;4.00;;
9392;SDS011;4736;52.508;13.422;2023-03-12T12:33:28;3.60;;;3.60;;
9392;SDS011;4736;52.508;13.422;2023-03-12T12:36:43;4.73;;;4.43;;
9392;SDS011;4736;52.508;13.422;2023-03-12T12:39:54;4.60;;;4.23;;
9392;SDS011;4736;52.508;13.422;2023-03-12T12:43:03;4.80;;;4.60;;
9392;SDS011;4736;52.508;13.422;2023-03-12T12:46:17;6.50;;;6.00;;
9392;SDS011;4736;52.508;13.422;2023-03-12T12:49:25;4.73;;;4.47;;
9392;SDS011;4736;52.508;13.422;2023-03-12T12:52:35;4.83;;;4.43;;
9392;SDS011;4736;52.508;13.422;2023-03-12T12:55:39;5.03;;;4.73;;
9392;SDS011;4736;52.508;13.422;2023-03-12T13:02:24;4.67;;;4.47;;
9392;SDS011;4736;52.508;13.422;2023-03-12T13:05:43;5.23;;;4.93;;
9392;SDS011;4736;52.508;13.422;2023-03-12T13:08:58;5.40;;;4.70;;
9392;SDS011;4736;52.508;13.422;2023-03-12T13:12:07;5.10;;;4.77;;
9392;SDS011;4736;52.508;13.422;2023-03-12T13:18:40;4.83;;;4.70;;
9392;SDS011;4736;52.508;13.422;2023-03-12T13:22:01;4.60;;;4.40;;
9392;SDS011;4736;52.508;13.422;2023-03-12T13:25:16;4.80;;;4.40;;
9392;SDS011;4736;52.508;13.422;2023-03-12T13:28:33;4.93;;;4.63;;
9392;SDS011;4736;52.508;13.422;2023-03-12T13:31:38;5.40;;;5.00;;
9392;SDS011;4736;52.508;13.422;2023-03-12T13:34:44;6.47;;;4.63;;
9392;SDS011;4736;52.508;13.422;2023-03-12T13:37:58;5.30;;;4.83;;
9392;SDS011;4736;52.508;13.422;2023-03-12T13:41:04;5.47;;;5.03;;
9392;SDS011;4736;52.508;13.422;2023-03-12T13:44:22;4.97;;;4.57;;
9392;SDS011;4736;52.508;13.422;2023-03-12T13:47:31;4.10;;;3.90;;
9392;SDS011;4736;52.508;13.422;2023-03-12T13:50:47;4.63;;;4.30;;
9392;SDS011;4736;52.508;13.422;2023-03-12T13:53:55;4.20;;;3.90;;
9392;SDS011;4736;52.508;13.422;2023-03-12T13:57:02;4.23;;;3.87;;
9392;SDS011;4736;52.508;13.422;2023-03-12T14:00:14;4.00;;;3.90;;
9392;SDS011;4736;52.508;13.422;2023-03-12T14:03:20;4.40;;;4.10;;
9392;SDS011;4736;52.508;13.422;2023-03-12T14:06:28;3.90;;;3.80;;
9392;SDS011;4736;52.508;13.422;2023-03-12T14:09:38;4.47;;;4.23;;
9392;SDS011;4736;52.508;13.422;2023-03-12T14:12:49;4.30;;;4.20;;
9392;SDS011;4736;52.508;13.422;2023-03-12T14:16:03;4.20;;;4.10;;
9392;SDS011;4736;52.508;13.422;2023-03-12T14:19:12;5.40;;;5.00;;
9392;SDS011;4736;52.508;13.422;2023-03-12T14:22:17;4.77;;;4.37;;
9392;SDS011;4736;52.508;13.422;2023-03-12T14:25:28;4.80;;;3.87;;
9392;SDS011;4736;52.508;13.422;2023-03-12T14:28:37;4.00;;;3.80;;
9392;SDS011;4736;52.508;13.422;2023-03-12T14:31:42;3.67;;;3.37;;
9392;SDS011;4736;52.508;13.422;2023-03-12T14:34:48;3.77;;;3.47;;
9392;SDS011;4736;52.508;13.422;2023-03-12T14:37:55;3.70;;;3.60;;
9392;SDS011;4736;52.508;13.422;2023-03-12T14:41:02;3.63;;;3.53;;
9392;SDS011;4736;52.508;13.422;2023-03-12T14:44:19;3.80;;;3.60;;
9392;SDS011;4736;52.508;13.422;2023-03-12T14:47:24;3.87;;;3.77;;
9392;SDS011;4736;52.508;13.422;2023-03-12T14:50:28;4.57;;;4.20;;
9392;SDS011;4736;52.508;13.422;2023-03-12T14:53:38;4.30;;;4.10;;
9392;SDS011;4736;52.508;13.422;2023-03-12T14:56:42;4.07;;;3.87;;
9392;SDS011;4736;52.508;13.422;2023-03-12T14:59:50;3.60;;;3.50;;
9392;SDS011;4736;52.508;13.422;2023-03-12T15:02:54;4.13;;;3.93;;
9392;SDS011;4736;52.508;13.422;2023-03-12T15:06:01;4.77;;;4.50;;
9392;SDS011;4736;52.508;13.422;2023-03-12T15:09:04;4.47;;;4.27;;
9392;SDS011;4736;52.508;13.422;2023-03-12T15:12:17;4.70;;;4.30;;
9392;SDS011;4736;52.508;13.422;2023-03-12T15:15:26;3.70;;;3.50;;
9392;SDS011;4736;52.508;13.422;2023-03-12T15:18:37;5.93;;;5.53;;
9392;SDS011;4736;52.508;13.422;2023-03-12T15:21:41;5.30;;;5.00;;
9392;SDS011;4736;52.508;13.422;2023-03-12T15:24:45;4.17;;;3.97;;
9392;SDS011;4736;52.508;13.422;2023-03-12T15:27:49;4.63;;;4.33;;
9392;SDS011;4736;52.508;13.422;2023-03-12T15:31:04;7.17;;;6.63;;
9392;SDS011;4736;52.508;13.422;2023-03-12T15:34:25;3.83;;;3.63;;
9392;SDS011;4736;52.508;13.422;2023-03-12T15:37:32;4.67;;;4.37;;
9392;SDS011;4736;52.508;13.422;2023-03-12T15:40:38;5.10;;;4.80;;
9392;SDS011;4736;52.508;13.422;2023-03-12T15:43:43;5.17;;;4.77;;
9392;SDS011;4736;52.508;13.422;2023-03-12T15:46:53;4.57;;;4.33;;
9392;SDS011;4736;52.508;13.422;2023-03-12T15:50:03;4.80;;;4.60;;
9392;SDS011;4736;52.508;13.422;2023-03-12T15:53:22;5.70;;;5.20;;
9392;SDS011;4736;52.508;13.422;2023-03-12T15:56:29;6.27;;;5.70;;
9392;SDS011;4736;52.508;13.422;2023-03-12T15:59:35;5.73;;;5.43;;
9392;SDS011;4736;52.508;13.422;2023-03-12T16:02:45;5.47;;;5.10;;
9392;SDS011;4736;52.508;13.422;2023-03-12T16:05:49;6.20;;;5.70;;
9392;SDS011;4736;52.508;13.422;2023-03-12T16:08:54;5.07;;;4.57;;
9392;SDS011;4736;52.508;13.422;2023-03-12T16:11:59;6.97;;;6.47;;
9392;SDS011;4736;52.508;13.422;2023-03-12T16:15:04;6.70;;;6.07;;
9392;SDS011;4736;52.508;13.422;2023-03-12T16:18:10;6.13;;;5.63;;
9392;SDS011;4736;52.508;13.422;2023-03-12T16:21:15;6.17;;;5.67;;
9392;SDS011;4736;52.508;13.422;2023-03-12T16:24:18;8.03;;;6.63;;
9392;SDS011;4736;52.508;13.422;2023-03-12T16:27:21;8.57;;;7.20;;
9392;SDS011;4736;52.508;13.422;2023-03-12T16:30:35;7.00;;;6.30;;
9392;SDS011;4736;52.508;13.422;2023-03-12T16:33:38;6.63;;;6.03;;
9392;SDS011;4736;52.508;13.422;2023-03-12T16:36:42;8.00;;;6.40;;
9392;SDS011;4736;52.508;13.422;2023-03-12T16:39:45;8.00;;;6.80;;
9392;SDS011;4736;52.508;13.422;2023-03-12T16:42:49;7.43;;;6.77;;
9392;SDS011;4736;52.508;13.422;2023-03-12T16:45:58;7.20;;;6.70;;
9392;SDS011;4736;52.508;13.422;2023-03-12T16:49:01;8.20;;;7.57;;
9392;SDS011;4736;52.508;13.422;2023-03-12T16:52:12;8.43;;;6.77;;
9392;SDS011;4736;52.508;13.422;2023-03-12T16:55:17;7.17;;;6.57;;
9392;SDS011;4736;52.508;13.422;2023-03-12T16:58:21;8.37;;;7.57;;
9392;SDS011;4736;52.508;13.422;2023-03-12T17:01:27;7.93;;;7.07;;
9392;SDS011;4736;52.508;13.422;2023-03-12T17:04:31;8.17;;;7.47;;
9392;SDS011;4736;52.508;13.422;2023-03-12T17:07:34;10.33;;;8.10;;
9392;SDS011;4736;52.508;13.422;2023-03-12T17:10:38;14.20;;;8.37;;
9392;SDS011;4736;52.508;13.422;2023-03-12T17:13:41;11.10;;;9.17;;
9392;SDS011;4736;52.508;13.422;2023-03-12T17:16:47;9.70;;;8.83;;
9392;SDS011;4736;52.508;13.422;2023-03-12T17:19:51;9.83;;;8.47;;
9392;SDS011;4736;52.508;13.422;2023-03-12T17:22:54;9.70;;;8.70;;
9392;SDS011;4736;52.508;13.422;2023-03-12T17:25:57;9.17;;;7.80;;
9392;SDS011;4736;52.508;13.422;2023-03-12T17:29:00;9.53;;;8.63;;
9392;SDS011;4736;52.508;13.422;2023-03-12T17:32:07;9.20;;;7.43;;
9392;SDS011;4736;52.508;13.422;2023-03-12T17:35:10;8.37;;;7.67;;
9392;SDS011;4736;52.508;13.422;2023-03-12T17:38:13;7.90;;;7.17;;
9392;SDS011;4736;52.508;13.422;2023-03-12T17:41:16;7.50;;;6.80;;
9392;SDS011;4736;52.508;13.422;2023-03-12T17:44:29;7.30;;;6.67;;
9392;SDS011;4736;52.508;13.422;2023-03-12T17:47:36;7.27;;;6.57;;
9392;SDS011;4736;52.508;13.422;2023-03-12T17:50:40;7.77;;;6.93;;
9392;SDS011;4736;52.508;13.422;2023-03-12T17:53:43;12.93;;;8.20;;
9392;SDS011;4736;52.508;13.422;2023-03-12T17:56:46;8.53;;;7.70;;
9392;SDS011;4736;52.508;13.422;2023-03-12T17:59:49;10.33;;;7.67;;
9392;SDS011;4736;52.508;13.422;2023-03-12T18:02:54;10.33;;;8.00;;
9392;SDS011;4736;52.508;13.422;2023-03-12T18:05:57;8.40;;;7.57;;
9392;SDS011;4736;52.508;13.422;2023-03-12T18:09:00;8.67;;;7.83;;
9392;SDS011;4736;52.508;13.422;2023-03-12T18:12:04;9.43;;;8.53;;
9392;SDS011;4736;52.508;13.422;2023-03-12T18:15:09;13.50;;;8.90;;
9392;SDS011;4736;52.508;13.422;2023-03-12T18:18:15;9.20;;;8.27;;
9392;SDS011;4736;52.508;13.422;2023-03-12T18:21:19;8.53;;;7.47;;
9392;SDS011;4736;52.508;13.422;2023-03-12T18:24:23;8.97;;;8.00;;
9392;SDS011;4736;52.508;13.422;2023-03-12T18:27:26;9.97;;;8.80;;
9392;SDS011;4736;52.508;13.422;2023-03-12T18:30:29;9.40;;;8.60;;
9392;SDS011;4736;52.508;13.422;2023-03-12T18:33:34;11.83;;;9.70;;
9392;SDS011;4736;52.508;13.422;2023-03-12T18:36:38;11.80;;;9.27;;
9392;SDS011;4736;52.508;13.422;2023-03-12T18:39:41;13.30;;;10.27;;
9392;SDS011;4736;52.508;13.422;2023-03-12T18:42:44;10.40;;;9.33;;
9392;SDS011;4736;52.508;13.422;2023-03-12T18:45:48;10.70;;;9.63;;
9392;SDS011;4736;52.508;13.422;2023-03-12T18:48:52;12.27;;;10.10;;
9392;SDS011;4736;52.508;13.422;2023-03-12T18:51:57;10.97;;;9.90;;
9392;SDS011;4736;52.508;13.422;2023-03-12T18:55:00;11.80;;;10.67;;
9392;SDS011;4736;52.508;13.422;2023-03-12T18:58:03;11.63;;;10.60;;
9392;SDS011;4736;52.508;13.422;2023-03-12T19:01:06;11.20;;;10.07;;
9392;SDS011;4736;52.508;13.422;2023-03-12T19:04:14;10.73;;;9.73;;
9392;SDS011;4736;52.508;13.422;2023-03-12T19:07:18;12.20;;;10.37;;